Buford, OH (45110)

10:22 PM EDT on May 26, 2015 (GMT -0400)
Hillsboro | | Change Station
CLOSE
Current Station
Personal Weather Station
Location: Hillsboro, OH
Elevation: 1102 ft
Nearby Weather Stations

Elev 1102 ft 39.21 °N, 83.60 °W | Updated 5 seconds ago

Overcast
Overcast
67.3 °F
Feels Like 67.3 °F
N
10.4
Wind Variable Wind from South
Gusts 10.4 mph

Today
High -- | Low -- °F
--% Chance of Precip.
Yesterday
High -- | Low -- °F
Precip. -- in
6:13 AM 8:49 PM
Waxing Gibbous, 63% visible
Pressure 30.00 in
Visibility 10.0 miles
Clouds Few 1400 ft
Few 12000 ft
Dew Point 67 °F
Humidity 99%
Rainfall 0.59 in
Snow Depth Not available.
UV 0 out of 12
Pollen 6.20 out of 12
Air Quality Not available.
Flu Activity Local Activity
METAR KILN 270154Z AUTO 20013G19KT 10SM FEW014 FEW120 21/19 A3002 RMK AO2 RAB04E53 SLP157 P0001 T02060189

More Conditions Fewer Conditions

Pressure 30.00 in
Visibility 10.0 miles
Clouds Few 1400 ft
Few 12000 ft
Dew Point 67 °F
Humidity 99%
Rainfall 0.59 in
Snow Depth Not available.
UV 0 out of 12
Pollen 6.20 out of 12
Air Quality Not available.
Flu Activity Local Activity
METAR KILN 270154Z AUTO 20013G19KT 10SM FEW014 FEW120 21/19 A3002 RMK AO2 RAB04E53 SLP157 P0001 T02060189

More Conditions Fewer Conditions

10-Day Weather Forecast

Almanac

Astronomy

May. 26, 2015 Rise Set
Actual Time
Civil Twilight
Nautical Twilight
Astronomical Twilight
Moon
Length of Visible Light
Length of Day
Tomorrow will be .
, % of the Moon is Illuminated

Today's Extremes

State Highs State Lows

Community

WunderPhotos

Upload Photos

1,824,562 photos uploaded!

WunderBlogs® & News

Nearby

Air Quality

  Air Quality AQ Index Pollutant
Not available.

Snow Depth

Station Depth Elevation

Earthquake Activity

City Distance Mag. Time & Date
Minimum magnitude displayed is 2.5.

Coastal Water Temperatures

Place Temperature

Stations

Nearby Weather Stations

Station Location Temp. Windchill Dew Point Humidity Wind Precip. Elev Updated Type